sensor_id;sensor_type;location;lat;lon;timestamp;pressure;altitude;pressure_sealevel;temperature;humidity
57859;BME280;49153;45.568;11.894;2022-10-19T00:03:32;102108.56;;;15.60;79.84
57859;BME280;49153;45.568;11.894;2022-10-19T00:05:58;102117.41;;;15.60;79.80
57859;BME280;49153;45.568;11.894;2022-10-19T00:08:23;102125.38;;;15.60;79.83
57859;BME280;49153;45.568;11.894;2022-10-19T00:10:48;102114.75;;;15.60;80.37
57859;BME280;49153;45.568;11.894;2022-10-19T00:13:20;102112.94;;;15.61;80.04
57859;BME280;49153;45.568;11.894;2022-10-19T00:15:46;102114.31;;;15.67;80.30
57859;BME280;49153;45.568;11.894;2022-10-19T00:18:11;102115.50;;;15.62;80.06
57859;BME280;49153;45.568;11.894;2022-10-19T00:20:36;102116.44;;;15.61;80.29
57859;BME280;49153;45.568;11.894;2022-10-19T00:23:02;102112.84;;;15.62;80.36
57859;BME280;49153;45.568;11.894;2022-10-19T00:25:28;102115.50;;;15.62;80.26
57859;BME280;49153;45.568;11.894;2022-10-19T00:27:53;102111.56;;;15.55;80.12
57859;BME280;49153;45.568;11.894;2022-10-19T00:30:19;102103.72;;;15.54;80.32
57859;BME280;49153;45.568;11.894;2022-10-19T00:32:44;102110.59;;;15.56;80.38
57859;BME280;49153;45.568;11.894;2022-10-19T00:35:09;102101.16;;;15.52;80.54
57859;BME280;49153;45.568;11.894;2022-10-19T00:37:35;102104.34;;;15.57;80.41
57859;BME280;49153;45.568;11.894;2022-10-19T00:40:00;102101.16;;;15.52;79.85
57859;BME280;49153;45.568;11.894;2022-10-19T00:42:26;102085.06;;;15.41;79.74
57859;BME280;49153;45.568;11.894;2022-10-19T00:47:18;102090.50;;;15.27;80.11
57859;BME280;49153;45.568;11.894;2022-10-19T00:49:47;102081.75;;;15.25;80.42
57859;BME280;49153;45.568;11.894;2022-10-19T00:52:15;102074.53;;;15.27;80.01
57859;BME280;49153;45.568;11.894;2022-10-19T00:54:43;102080.06;;;15.24;79.90
57859;BME280;49153;45.568;11.894;2022-10-19T00:57:10;102082.72;;;15.24;79.92
57859;BME280;49153;45.568;11.894;2022-10-19T00:59:37;102083.88;;;15.20;79.82
57859;BME280;49153;45.568;11.894;2022-10-19T01:02:05;102086.75;;;15.17;80.14
57859;BME280;49153;45.568;11.894;2022-10-19T01:04:33;102083.97;;;15.18;79.89
57859;BME280;49153;45.568;11.894;2022-10-19T01:07:01;102081.75;;;15.25;80.47
57859;BME280;49153;45.568;11.894;2022-10-19T01:09:27;102073.69;;;15.27;80.20
57859;BME280;49153;45.568;11.894;2022-10-19T01:12:24;102069.22;;;15.27;79.92
57859;BME280;49153;45.568;11.894;2022-10-19T01:15:02;102080.06;;;15.24;80.28
57859;BME280;49153;45.568;11.894;2022-10-19T01:34:02;102065.06;;;15.10;80.50
57859;BME280;49153;45.568;11.894;2022-10-19T01:39:37;102064.09;;;14.99;80.13
57859;BME280;49153;45.568;11.894;2022-10-19T01:44:59;102057.06;;;14.98;80.22
57859;BME280;49153;45.568;11.894;2022-10-19T01:47:31;102053.34;;;14.88;79.85
57859;BME280;49153;45.568;11.894;2022-10-19T01:50:02;102051.50;;;14.75;79.90
57859;BME280;49153;45.568;11.894;2022-10-19T01:52:30;102045.66;;;14.70;80.32
57859;BME280;49153;45.568;11.894;2022-10-19T01:54:58;102052.38;;;14.76;80.16
57859;BME280;49153;45.568;11.894;2022-10-19T01:57:38;102055.25;;;14.73;80.06
57859;BME280;49153;45.568;11.894;2022-10-19T02:00:06;102055.03;;;14.76;80.35
57859;BME280;49153;45.568;11.894;2022-10-19T02:02:39;102051.94;;;14.69;80.09
57859;BME280;49153;45.568;11.894;2022-10-19T02:05:06;102047.47;;;14.70;80.52
57859;BME280;49153;45.568;11.894;2022-10-19T02:07:32;102048.44;;;14.69;80.60
57859;BME280;49153;45.568;11.894;2022-10-19T02:09:59;102036.50;;;14.62;80.03
57859;BME280;49153;45.568;11.894;2022-10-19T02:12:25;102046.38;;;14.60;80.10
57859;BME280;49153;45.568;11.894;2022-10-19T02:14:55;102033.22;;;14.58;80.34
57859;BME280;49153;45.568;11.894;2022-10-19T02:17:31;102023.66;;;14.56;80.32
57859;BME280;49153;45.568;11.894;2022-10-19T02:19:59;102034.25;;;14.56;79.98
57859;BME280;49153;45.568;11.894;2022-10-19T02:22:24;102042.53;;;14.51;79.80
57859;BME280;49153;45.568;11.894;2022-10-19T02:24:50;102042.75;;;14.48;79.95
57859;BME280;49153;45.568;11.894;2022-10-19T02:27:16;102035.84;;;14.46;79.81
57859;BME280;49153;45.568;11.894;2022-10-19T02:29:42;102034.25;;;14.43;79.95
57859;BME280;49153;45.568;11.894;2022-10-19T02:32:08;102025.25;;;14.31;80.03
57859;BME280;49153;45.568;11.894;2022-10-19T02:34:34;102038.03;;;14.39;80.52
57859;BME280;49153;45.568;11.894;2022-10-19T02:37:00;102025.84;;;14.36;80.20
57859;BME280;49153;45.568;11.894;2022-10-19T02:39:25;102037.19;;;14.38;79.97
57859;BME280;49153;45.568;11.894;2022-10-19T02:44:30;102023.09;;;14.38;80.44
57859;BME280;49153;45.568;11.894;2022-10-19T02:47:09;102008.38;;;14.32;80.13
57859;BME280;49153;45.568;11.894;2022-10-19T02:49:37;102009.41;;;14.30;80.35
57859;BME280;49153;45.568;11.894;2022-10-19T02:52:05;102014.81;;;14.28;80.39
57859;BME280;49153;45.568;11.894;2022-10-19T02:54:32;102006.53;;;14.20;80.53
57859;BME280;49153;45.568;11.894;2022-10-19T02:56:57;102011.75;;;14.22;80.30
57859;BME280;49153;45.568;11.894;2022-10-19T02:59:23;102010.63;;;14.12;80.34
57859;BME280;49153;45.568;11.894;2022-10-19T03:01:49;102011.78;;;14.08;80.56
57859;BME280;49153;45.568;11.894;2022-10-19T03:04:15;102007.16;;;14.11;80.88
57859;BME280;49153;45.568;11.894;2022-10-19T03:06:41;101986.56;;;14.15;81.05
57859;BME280;49153;45.568;11.894;2022-10-19T03:09:06;102009.28;;;14.19;80.85
57859;BME280;49153;45.568;11.894;2022-10-19T03:11:33;102003.50;;;14.12;80.33
57859;BME280;49153;45.568;11.894;2022-10-19T03:13:59;101999.97;;;13.99;80.56
57859;BME280;49153;45.568;11.894;2022-10-19T03:16:24;102005.19;;;14.01;80.35
57859;BME280;49153;45.568;11.894;2022-10-19T03:18:50;102012.59;;;13.95;80.50
57859;BME280;49153;45.568;11.894;2022-10-19T03:21:17;102007.47;;;13.92;80.30
57859;BME280;49153;45.568;11.894;2022-10-19T03:23:43;102004.47;;;13.84;80.32
57859;BME280;49153;45.568;11.894;2022-10-19T03:26:12;102009.03;;;13.82;80.42
57859;BME280;49153;45.568;11.894;2022-10-19T03:28:38;102016.69;;;13.87;80.76
57859;BME280;49153;45.568;11.894;2022-10-19T03:31:04;102000.03;;;13.85;80.68
57859;BME280;49153;45.568;11.894;2022-10-19T03:33:29;102008.53;;;13.90;80.55
57859;BME280;49153;45.568;11.894;2022-10-19T03:36:18;102007.69;;;13.89;80.71
57859;BME280;49153;45.568;11.894;2022-10-19T03:38:44;102013.38;;;13.83;80.46
57859;BME280;49153;45.568;11.894;2022-10-19T03:41:11;102011.69;;;13.82;80.73
57859;BME280;49153;45.568;11.894;2022-10-19T03:43:36;102010.66;;;13.85;80.95
57859;BME280;49153;45.568;11.894;2022-10-19T03:46:02;102006.59;;;13.79;80.61
57859;BME280;49153;45.568;11.894;2022-10-19T03:48:27;102009.97;;;13.81;80.85
57859;BME280;49153;45.568;11.894;2022-10-19T03:51:05;102008.25;;;13.80;80.52
57859;BME280;49153;45.568;11.894;2022-10-19T03:53:32;102016.06;;;13.69;80.31
57859;BME280;49153;45.568;11.894;2022-10-19T03:58:31;102017.75;;;13.70;80.52
57859;BME280;49153;45.568;11.894;2022-10-19T04:00:57;102013.69;;;13.65;80.34
57859;BME280;49153;45.568;11.894;2022-10-19T04:03:22;102032.75;;;13.57;80.22
57859;BME280;49153;45.568;11.894;2022-10-19T04:05:48;102027.84;;;13.51;80.49
57859;BME280;49153;45.568;11.894;2022-10-19T04:08:13;102029.34;;;13.55;80.87
57859;BME280;49153;45.568;11.894;2022-10-19T04:10:38;102022.53;;;13.51;80.84
57859;BME280;49153;45.568;11.894;2022-10-19T04:13:04;102022.88;;;13.59;81.10
57859;BME280;49153;45.568;11.894;2022-10-19T04:15:29;102020.78;;;13.64;80.79
57859;BME280;49153;45.568;11.894;2022-10-19T04:17:54;102026.88;;;13.66;81.11
57859;BME280;49153;45.568;11.894;2022-10-19T04:20:20;102019.69;;;13.68;80.73
57859;BME280;49153;45.568;11.894;2022-10-19T04:22:45;102024.22;;;13.66;80.41
57859;BME280;49153;45.568;11.894;2022-10-19T04:25:10;102027.94;;;13.64;80.53
57859;BME280;49153;45.568;11.894;2022-10-19T04:27:36;102028.19;;;13.59;81.06
57859;BME280;49153;45.568;11.894;2022-10-19T04:30:02;102020.44;;;13.56;80.58
57859;BME280;49153;45.568;11.894;2022-10-19T04:32:28;102029.34;;;13.55;80.70
57859;BME280;49153;45.568;11.894;2022-10-19T04:34:53;102018.81;;;13.53;80.98
57859;BME280;49153;45.568;11.894;2022-10-19T04:37:19;102018.09;;;13.51;81.02
57859;BME280;49153;45.568;11.894;2022-10-19T04:39:44;102028.78;;;13.50;80.83
57859;BME280;49153;45.568;11.894;2022-10-19T04:42:09;102014.22;;;13.43;81.08
57859;BME280;49153;45.568;11.894;2022-10-19T04:44:35;102017.81;;;13.42;80.55
57859;BME280;49153;45.568;11.894;2022-10-19T04:47:00;102015.72;;;13.33;80.77
57859;BME280;49153;45.568;11.894;2022-10-19T04:49:25;102008.34;;;13.24;80.48
57859;BME280;49153;45.568;11.894;2022-10-19T04:51:51;102013.84;;;13.21;80.86
57859;BME280;49153;45.568;11.894;2022-10-19T04:54:16;102015.06;;;13.15;80.89
57859;BME280;49153;45.568;11.894;2022-10-19T04:56:41;102007.47;;;13.09;80.90
57859;BME280;49153;45.568;11.894;2022-10-19T04:59:08;102011.91;;;13.08;80.93
57859;BME280;49153;45.568;11.894;2022-10-19T05:01:34;102010.19;;;13.07;81.05
57859;BME280;49153;45.568;11.894;2022-10-19T05:04:00;102009.25;;;13.08;81.13
57859;BME280;49153;45.568;11.894;2022-10-19T05:06:27;102018.13;;;13.07;81.16
57859;BME280;49153;45.568;11.894;2022-10-19T05:08:52;102008.78;;;13.02;80.71
57859;BME280;49153;45.568;11.894;2022-10-19T05:11:18;102006.50;;;12.96;81.01
57859;BME280;49153;45.568;11.894;2022-10-19T05:13:44;102007.53;;;12.93;80.95
57859;BME280;49153;45.568;11.894;2022-10-19T05:16:12;102006.97;;;12.88;80.99
57859;BME280;49153;45.568;11.894;2022-10-19T05:18:39;102022.00;;;12.88;81.47
57859;BME280;49153;45.568;11.894;2022-10-19T05:21:05;102012.28;;;12.88;81.22
57859;BME280;49153;45.568;11.894;2022-10-19T05:23:32;102007.06;;;12.87;81.22
57859;BME280;49153;45.568;11.894;2022-10-19T05:26:02;102018.59;;;12.86;81.11
57859;BME280;49153;45.568;11.894;2022-10-19T05:28:29;102000.53;;;12.78;81.23
57859;BME280;49153;45.568;11.894;2022-10-19T05:30:54;102007.13;;;12.85;81.62
57859;BME280;49153;45.568;11.894;2022-10-19T05:33:20;102003.75;;;12.83;81.38
57859;BME280;49153;45.568;11.894;2022-10-19T05:35:45;102011.41;;;12.88;81.15
57859;BME280;49153;45.568;11.894;2022-10-19T05:38:10;102011.50;;;12.86;81.36
57859;BME280;49153;45.568;11.894;2022-10-19T05:40:36;102004.50;;;12.85;81.42
57859;BME280;49153;45.568;11.894;2022-10-19T05:43:01;102010.56;;;12.87;81.36
57859;BME280;49153;45.568;11.894;2022-10-19T05:45:26;102002.63;;;12.87;81.45
57859;BME280;49153;45.568;11.894;2022-10-19T05:47:52;101999.09;;;12.87;81.44
57859;BME280;49153;45.568;11.894;2022-10-19T05:50:17;101998.09;;;12.89;81.74
57859;BME280;49153;45.568;11.894;2022-10-19T05:52:43;101986.81;;;12.86;81.63
57859;BME280;49153;45.568;11.894;2022-10-19T05:55:08;102000.75;;;12.89;81.67
57859;BME280;49153;45.568;11.894;2022-10-19T05:57:34;101999.75;;;12.90;81.95
57859;BME280;49153;45.568;11.894;2022-10-19T05:59:59;102004.03;;;12.93;81.69
57859;BME280;49153;45.568;11.894;2022-10-19T06:02:24;102004.91;;;12.93;82.02
57859;BME280;49153;45.568;11.894;2022-10-19T06:04:50;102004.53;;;12.99;82.03
57859;BME280;49153;45.568;11.894;2022-10-19T06:07:15;102008.88;;;13.00;81.92
57859;BME280;49153;45.568;11.894;2022-10-19T06:09:40;102000.94;;;13.00;82.18
57859;BME280;49153;45.568;11.894;2022-10-19T06:12:06;102010.19;;;13.07;82.07
57859;BME280;49153;45.568;11.894;2022-10-19T06:14:31;102010.47;;;13.03;82.11
57859;BME280;49153;45.568;11.894;2022-10-19T06:16:57;102012.09;;;13.05;82.34
57859;BME280;49153;45.568;11.894;2022-10-19T06:19:22;102017.97;;;13.10;82.45
57859;BME280;49153;45.568;11.894;2022-10-19T06:21:48;102024.97;;;13.11;82.61
57859;BME280;49153;45.568;11.894;2022-10-19T06:24:13;102016.09;;;13.13;82.80
57859;BME280;49153;45.568;11.894;2022-10-19T06:26:38;102023.75;;;13.17;83.10
57859;BME280;49153;45.568;11.894;2022-10-19T06:29:04;102026.81;;;13.25;83.48
57859;BME280;49153;45.568;11.894;2022-10-19T06:31:32;102029.81;;;13.33;83.53
57859;BME280;49153;45.568;11.894;2022-10-19T06:33:58;102032.00;;;13.41;83.63
57859;BME280;49153;45.568;11.894;2022-10-19T06:36:25;102030.69;;;13.48;83.85
57859;BME280;49153;45.568;11.894;2022-10-19T06:38:51;102033.78;;;13.54;84.04
57859;BME280;49153;45.568;11.894;2022-10-19T06:41:20;102032.06;;;13.53;84.28
57859;BME280;49153;45.568;11.894;2022-10-19T06:43:53;102044.88;;;13.61;84.09
57859;BME280;49153;45.568;11.894;2022-10-19T06:46:20;102059.06;;;13.60;84.36
57859;BME280;49153;45.568;11.894;2022-10-19T06:48:58;102045.25;;;13.55;84.73
57859;BME280;49153;45.568;11.894;2022-10-19T06:51:25;102037.84;;;13.60;85.06
57859;BME280;49153;45.568;11.894;2022-10-19T06:53:51;102047.91;;;13.69;85.59
57859;BME280;49153;45.568;11.894;2022-10-19T06:56:17;102038.78;;;13.73;85.78
57859;BME280;49153;45.568;11.894;2022-10-19T06:58:43;102039.34;;;13.78;86.31
57859;BME280;49153;45.568;11.894;2022-10-19T07:01:09;102033.66;;;13.70;86.29
57859;BME280;49153;45.568;11.894;2022-10-19T07:03:36;102042.00;;;13.78;86.68
57859;BME280;49153;45.568;11.894;2022-10-19T07:06:05;102051.38;;;13.84;87.18
57859;BME280;49153;45.568;11.894;2022-10-19T07:08:32;102053.34;;;13.94;87.45
57859;BME280;49153;45.568;11.894;2022-10-19T07:11:00;102052.44;;;14.08;88.16
57859;BME280;49153;45.568;11.894;2022-10-19T07:13:27;102049.94;;;14.19;88.17
57859;BME280;49153;45.568;11.894;2022-10-19T07:16:07;102068.38;;;14.35;88.60
57859;BME280;49153;45.568;11.894;2022-10-19T07:18:37;102055.38;;;14.45;88.90
57859;BME280;49153;45.568;11.894;2022-10-19T07:21:05;102065.50;;;14.65;89.08
57859;BME280;49153;45.568;11.894;2022-10-19T07:23:33;102062.03;;;14.77;89.21
57859;BME280;49153;45.568;11.894;2022-10-19T07:26:06;102058.56;;;14.89;89.53
57859;BME280;49153;45.568;11.894;2022-10-19T07:28:33;102060.06;;;15.06;89.78
57859;BME280;49153;45.568;11.894;2022-10-19T07:31:04;102050.19;;;15.20;89.88
57859;BME280;49153;45.568;11.894;2022-10-19T07:33:30;102049.19;;;15.34;89.97
57859;BME280;49153;45.568;11.894;2022-10-19T07:36:04;102051.75;;;15.48;90.07
57859;BME280;49153;45.568;11.894;2022-10-19T07:38:30;102042.19;;;15.58;90.01
57859;BME280;49153;45.568;11.894;2022-10-19T07:41:05;102048.97;;;15.75;90.38
57859;BME280;49153;45.568;11.894;2022-10-19T07:43:31;102048.81;;;15.89;90.25
57859;BME280;49153;45.568;11.894;2022-10-19T07:46:07;102053.38;;;16.00;90.29
57859;BME280;49153;45.568;11.894;2022-10-19T07:48:33;102052.94;;;16.06;89.77
57859;BME280;49153;45.568;11.894;2022-10-19T07:51:04;102053.84;;;16.18;89.91
57859;BME280;49153;45.568;11.894;2022-10-19T07:53:30;102051.72;;;16.34;89.81
57859;BME280;49153;45.568;11.894;2022-10-19T07:56:02;102046.34;;;16.46;90.01
57859;BME280;49153;45.568;11.894;2022-10-19T07:58:27;102045.47;;;16.59;89.04
57859;BME280;49153;45.568;11.894;2022-10-19T08:00:58;102047.16;;;16.71;89.25
57859;BME280;49153;45.568;11.894;2022-10-19T08:03:24;102055.69;;;16.87;88.68
57859;BME280;49153;45.568;11.894;2022-10-19T08:05:49;102051.13;;;16.89;88.10
57859;BME280;49153;45.568;11.894;2022-10-19T08:08:15;102046.06;;;16.97;87.93
57859;BME280;49153;45.568;11.894;2022-10-19T08:10:40;102057.09;;;17.15;87.33
57859;BME280;49153;45.568;11.894;2022-10-19T08:13:06;102055.03;;;17.29;87.54
57859;BME280;49153;45.568;11.894;2022-10-19T08:15:31;102053.88;;;17.45;87.37
57859;BME280;49153;45.568;11.894;2022-10-19T08:17:56;102051.47;;;17.64;87.15
57859;BME280;49153;45.568;11.894;2022-10-19T08:20:22;102049.97;;;17.82;87.08
57859;BME280;49153;45.568;11.894;2022-10-19T08:22:47;102048.88;;;17.96;85.71
57859;BME280;49153;45.568;11.894;2022-10-19T08:25:13;102056.13;;;18.05;86.12
57859;BME280;49153;45.568;11.894;2022-10-19T08:27:38;102054.75;;;18.22;86.17
57859;BME280;49153;45.568;11.894;2022-10-19T08:30:04;102051.06;;;18.34;84.35
57859;BME280;49153;45.568;11.894;2022-10-19T08:32:29;102059.50;;;18.50;83.88
57859;BME280;49153;45.568;11.894;2022-10-19T08:34:54;102046.25;;;18.60;83.43
57859;BME280;49153;45.568;11.894;2022-10-19T08:37:20;102052.84;;;18.76;82.72
57859;BME280;49153;45.568;11.894;2022-10-19T08:39:45;102034.84;;;18.78;82.58
57859;BME280;49153;45.568;11.894;2022-10-19T08:42:15;102051.72;;;18.99;81.15
57859;BME280;49153;45.568;11.894;2022-10-19T08:45:00;102055.59;;;19.07;81.36
57859;BME280;49153;45.568;11.894;2022-10-19T08:50:35;102047.88;;;19.44;81.53
57859;BME280;49153;45.568;11.894;2022-10-19T08:53:14;102049.91;;;19.51;79.32
57859;BME280;49153;45.568;11.894;2022-10-19T08:55:48;102047.72;;;19.66;79.72
57859;BME280;49153;45.568;11.894;2022-10-19T08:58:26;102038.16;;;19.73;78.64
57859;BME280;49153;45.568;11.894;2022-10-19T09:04:14;102040.19;;;20.00;77.17
57859;BME280;49153;45.568;11.894;2022-10-19T09:06:54;102043.59;;;20.11;76.25
57859;BME280;49153;45.568;11.894;2022-10-19T09:09:25;102036.84;;;20.27;76.65
57859;BME280;49153;45.568;11.894;2022-10-19T09:12:00;102039.97;;;20.41;76.33
57859;BME280;49153;45.568;11.894;2022-10-19T09:14:39;102034.06;;;20.67;76.12
57859;BME280;49153;45.568;11.894;2022-10-19T09:17:13;102030.94;;;20.81;75.48
57859;BME280;49153;45.568;11.894;2022-10-19T09:19:40;102038.06;;;20.99;74.99
57859;BME280;49153;45.568;11.894;2022-10-19T09:22:20;102029.44;;;21.15;74.79
57859;BME280;49153;45.568;11.894;2022-10-19T09:24:56;102025.88;;;21.34;74.40
57859;BME280;49153;45.568;11.894;2022-10-19T09:27:32;102017.03;;;21.51;73.92
57859;BME280;49153;45.568;11.894;2022-10-19T09:30:02;102010.63;;;21.62;72.39
57859;BME280;49153;45.568;11.894;2022-10-19T09:32:36;102015.16;;;21.79;71.74
57859;BME280;49153;45.568;11.894;2022-10-19T09:35:06;102025.31;;;21.85;71.50
57859;BME280;49153;45.568;11.894;2022-10-19T09:37:44;102011.69;;;21.96;69.51
57859;BME280;49153;45.568;11.894;2022-10-19T09:40:25;102015.16;;;22.06;69.30
57859;BME280;49153;45.568;11.894;2022-10-19T09:42:51;102022.25;;;22.25;69.63
57859;BME280;49153;45.568;11.894;2022-10-19T09:48:34;102027.00;;;22.49;66.41
57859;BME280;49153;45.568;11.894;2022-10-19T09:51:10;102030.38;;;22.51;66.74
57859;BME280;49153;45.568;11.894;2022-10-19T09:53:36;102039.22;;;22.61;66.44
57859;BME280;49153;45.568;11.894;2022-10-19T09:56:06;102022.00;;;22.71;65.32
57859;BME280;49153;45.568;11.894;2022-10-19T09:58:33;102036.81;;;22.93;66.40
57859;BME280;49153;45.568;11.894;2022-10-19T10:00:59;102022.59;;;23.09;65.69
57859;BME280;49153;45.568;11.894;2022-10-19T10:03:37;102034.25;;;23.17;62.63
57859;BME280;49153;45.568;11.894;2022-10-19T10:06:12;102025.69;;;23.22;63.48
57859;BME280;49153;45.568;11.894;2022-10-19T10:08:49;102028.31;;;23.40;64.03
57859;BME280;49153;45.568;11.894;2022-10-19T10:11:29;102024.38;;;23.52;61.94
57859;BME280;49153;45.568;11.894;2022-10-19T10:13:57;102016.09;;;23.45;61.80
57859;BME280;49153;45.568;11.894;2022-10-19T10:16:29;102011.91;;;23.51;62.62
57859;BME280;49153;45.568;11.894;2022-10-19T10:18:58;102019.53;;;23.64;60.69
57859;BME280;49153;45.568;11.894;2022-10-19T10:21:29;102014.31;;;23.70;61.21
57859;BME280;49153;45.568;11.894;2022-10-19T10:26:27;102006.44;;;23.85;59.84
57859;BME280;49153;45.568;11.894;2022-10-19T10:28:52;102009.34;;;23.91;59.72
57859;BME280;49153;45.568;11.894;2022-10-19T10:31:28;102009.22;;;24.09;60.81
57859;BME280;49153;45.568;11.894;2022-10-19T10:33:59;102004.72;;;24.26;59.56
57859;BME280;49153;45.568;11.894;2022-10-19T10:36:30;102012.13;;;24.40;59.52
57859;BME280;49153;45.568;11.894;2022-10-19T10:39:05;101997.97;;;24.54;59.20
57859;BME280;49153;45.568;11.894;2022-10-19T10:41:42;101999.34;;;24.58;57.25
57859;BME280;49153;45.568;11.894;2022-10-19T10:44:35;101996.63;;;24.66;58.63
57859;BME280;49153;45.568;11.894;2022-10-19T10:47:03;101993.72;;;24.76;57.19
57859;BME280;49153;45.568;11.894;2022-10-19T10:49:36;101991.69;;;24.86;57.17
57859;BME280;49153;45.568;11.894;2022-10-19T10:52:09;101982.94;;;24.92;57.72
57859;BME280;49153;45.568;11.894;2022-10-19T10:54:36;101982.03;;;25.08;58.12
57859;BME280;49153;45.568;11.894;2022-10-19T10:57:07;101970.53;;;25.22;56.98
57859;BME280;49153;45.568;11.894;2022-10-19T11:02:37;101968.50;;;25.55;57.03
57859;BME280;49153;45.568;11.894;2022-10-19T11:05:37;101964.81;;;25.64;56.27
57859;BME280;49153;45.568;11.894;2022-10-19T11:11:13;101959.78;;;25.84;53.84
57859;BME280;49153;45.568;11.894;2022-10-19T11:14:03;101955.13;;;25.70;53.94
57859;BME280;49153;45.568;11.894;2022-10-19T11:16:38;101954.28;;;25.69;52.71
57859;BME280;49153;45.568;11.894;2022-10-19T11:19:19;101949.19;;;25.74;53.51
57859;BME280;49153;45.568;11.894;2022-10-19T11:32:36;101928.44;;;26.12;53.04
57859;BME280;49153;45.568;11.894;2022-10-19T11:35:12;101926.78;;;26.11;53.31
57859;BME280;49153;45.568;11.894;2022-10-19T11:40:49;101921.34;;;26.34;51.98
57859;BME280;49153;45.568;11.894;2022-10-19T11:43:39;101918.41;;;26.43;52.45
57859;BME280;49153;45.568;11.894;2022-10-19T11:46:21;101911.38;;;26.49;51.37
57859;BME280;49153;45.568;11.894;2022-10-19T12:00:00;101897.91;;;26.64;48.61
57859;BME280;49153;45.568;11.894;2022-10-19T12:04:53;101896.03;;;26.64;49.60
57859;BME280;49153;45.568;11.894;2022-10-19T12:10:28;101891.19;;;26.89;50.99
57859;BME280;49153;45.568;11.894;2022-10-19T12:13:04;101891.75;;;26.99;50.41
57859;BME280;49153;45.568;11.894;2022-10-19T12:15:51;101887.25;;;27.06;48.93
57859;BME280;49153;45.568;11.894;2022-10-19T12:18:31;101885.41;;;27.07;49.57
57859;BME280;49153;45.568;11.894;2022-10-19T12:21:02;101870.31;;;27.19;48.94
57859;BME280;49153;45.568;11.894;2022-10-19T12:23:36;101877.06;;;27.08;48.33
57859;BME280;49153;45.568;11.894;2022-10-19T12:26:05;101862.88;;;27.06;49.60
57859;BME280;49153;45.568;11.894;2022-10-19T12:28:34;101863.16;;;27.11;49.25
57859;BME280;49153;45.568;11.894;2022-10-19T12:31:01;101867.94;;;27.30;49.20
57859;BME280;49153;45.568;11.894;2022-10-19T12:33:32;101871.00;;;27.42;48.23
57859;BME280;49153;45.568;11.894;2022-10-19T12:36:21;101868.00;;;27.52;48.15
57859;BME280;49153;45.568;11.894;2022-10-19T12:47:20;101862.44;;;27.39;44.74
57859;BME280;49153;45.568;11.894;2022-10-19T12:49:47;101857.78;;;27.33;45.15
57859;BME280;49153;45.568;11.894;2022-10-19T12:52:15;101846.72;;;27.34;45.70
57859;BME280;49153;45.568;11.894;2022-10-19T12:54:41;101844.81;;;27.49;46.87
57859;BME280;49153;45.568;11.894;2022-10-19T12:57:25;101840.84;;;27.66;46.11
57859;BME280;49153;45.568;11.894;2022-10-19T13:00:03;101845.22;;;27.67;46.00
57859;BME280;49153;45.568;11.894;2022-10-19T13:02:35;101834.03;;;27.77;45.35
57859;BME280;49153;45.568;11.894;2022-10-19T13:05:01;101832.25;;;27.84;45.83
57859;BME280;49153;45.568;11.894;2022-10-19T13:07:30;101829.84;;;27.96;47.74
57859;BME280;49153;45.568;11.894;2022-10-19T13:10:00;101821.09;;;28.00;46.90
57859;BME280;49153;45.568;11.894;2022-10-19T13:12:27;101826.91;;;27.97;45.26
57859;BME280;49153;45.568;11.894;2022-10-19T13:15:01;101821.00;;;27.87;45.55
57859;BME280;49153;45.568;11.894;2022-10-19T13:22:48;101814.16;;;27.91;43.92
57859;BME280;49153;45.568;11.894;2022-10-19T13:25:21;101812.84;;;27.87;45.47
57859;BME280;49153;45.568;11.894;2022-10-19T13:27:52;101802.00;;;27.87;44.46
57859;BME280;49153;45.568;11.894;2022-10-19T13:38:41;101797.88;;;28.12;46.39
57859;BME280;49153;45.568;11.894;2022-10-19T13:41:08;101798.66;;;28.13;45.56
57859;BME280;49153;45.568;11.894;2022-10-19T13:51:39;101793.91;;;27.94;43.14
57859;BME280;49153;45.568;11.894;2022-10-19T13:54:24;101800.38;;;27.93;44.42
57859;BME280;49153;45.568;11.894;2022-10-19T14:07:35;101793.63;;;28.10;44.66
57859;BME280;49153;45.568;11.894;2022-10-19T14:12:34;101793.44;;;28.11;44.01
57859;BME280;49153;45.568;11.894;2022-10-19T14:17:42;101784.44;;;28.11;44.80
57859;BME280;49153;45.568;11.894;2022-10-19T14:22:52;101786.59;;;28.16;44.63
57859;BME280;49153;45.568;11.894;2022-10-19T14:25:23;101784.91;;;28.14;45.58
57859;BME280;49153;45.568;11.894;2022-10-19T14:27:57;101782.19;;;28.14;45.45
57859;BME280;49153;45.568;11.894;2022-10-19T14:30:30;101788.00;;;28.11;44.86
57859;BME280;49153;45.568;11.894;2022-10-19T14:32:58;101787.53;;;28.08;44.02
57859;BME280;49153;45.568;11.894;2022-10-19T14:35:32;101784.03;;;28.07;45.20
57859;BME280;49153;45.568;11.894;2022-10-19T14:37:58;101789.03;;;28.10;44.62
57859;BME280;49153;45.568;11.894;2022-10-19T14:40:27;101782.56;;;28.11;46.06
57859;BME280;49153;45.568;11.894;2022-10-19T14:42:55;101781.03;;;28.02;45.25
57859;BME280;49153;45.568;11.894;2022-10-19T14:45:24;101778.31;;;28.02;45.80
57859;BME280;49153;45.568;11.894;2022-10-19T14:47:53;101773.13;;;28.01;46.72
57859;BME280;49153;45.568;11.894;2022-10-19T14:50:23;101772.66;;;27.97;46.00
57859;BME280;49153;45.568;11.894;2022-10-19T14:53:39;101770.09;;;27.89;45.93
57859;BME280;49153;45.568;11.894;2022-10-19T14:55:40;101765.09;;;27.86;47.13
57859;BME280;49153;45.568;11.894;2022-10-19T14:58:11;101773.34;;;27.78;47.22
57859;BME280;49153;45.568;11.894;2022-10-19T15:00:38;101765.94;;;27.65;46.27